sensor_id;sensor_type;location;lat;lon;timestamp;P1;durP1;ratioP1;P2;durP2;ratioP2
6121;SDS011;3091;51.506;7.672;2023-05-23T00:01:44;14.13;;;13.53;;
6121;SDS011;3091;51.506;7.672;2023-05-23T00:04:10;14.80;;;14.20;;
6121;SDS011;3091;51.506;7.672;2023-05-23T00:06:42;13.37;;;12.80;;
6121;SDS011;3091;51.506;7.672;2023-05-23T00:09:14;13.50;;;12.90;;
6121;SDS011;3091;51.506;7.672;2023-05-23T00:11:40;14.00;;;13.40;;
6121;SDS011;3091;51.506;7.672;2023-05-23T00:14:12;12.87;;;12.37;;
6121;SDS011;3091;51.506;7.672;2023-05-23T00:16:42;12.57;;;12.07;;
6121;SDS011;3091;51.506;7.672;2023-05-23T00:19:12;12.10;;;11.60;;
6121;SDS011;3091;51.506;7.672;2023-05-23T00:21:41;14.27;;;13.53;;
6121;SDS011;3091;51.506;7.672;2023-05-23T00:24:07;13.20;;;12.70;;
6121;SDS011;3091;51.506;7.672;2023-05-23T00:26:34;13.47;;;12.97;;
6121;SDS011;3091;51.506;7.672;2023-05-23T00:29:00;14.97;;;14.37;;
6121;SDS011;3091;51.506;7.672;2023-05-23T00:31:26;15.30;;;14.60;;
6121;SDS011;3091;51.506;7.672;2023-05-23T00:33:52;15.20;;;14.50;;
6121;SDS011;3091;51.506;7.672;2023-05-23T00:36:18;14.20;;;13.60;;
6121;SDS011;3091;51.506;7.672;2023-05-23T00:38:46;14.80;;;14.20;;
6121;SDS011;3091;51.506;7.672;2023-05-23T00:41:12;19.33;;;18.30;;
6121;SDS011;3091;51.506;7.672;2023-05-23T00:43:38;14.80;;;14.20;;
6121;SDS011;3091;51.506;7.672;2023-05-23T00:46:04;15.00;;;14.40;;
6121;SDS011;3091;51.506;7.672;2023-05-23T00:48:32;15.70;;;15.00;;
6121;SDS011;3091;51.506;7.672;2023-05-23T00:50:58;15.03;;;14.43;;
6121;SDS011;3091;51.506;7.672;2023-05-23T00:53:25;15.57;;;14.67;;
6121;SDS011;3091;51.506;7.672;2023-05-23T00:55:51;14.80;;;14.20;;
6121;SDS011;3091;51.506;7.672;2023-05-23T00:58:17;14.87;;;14.27;;
6121;SDS011;3091;51.506;7.672;2023-05-23T01:00:51;14.57;;;13.97;;
6121;SDS011;3091;51.506;7.672;2023-05-23T01:03:18;14.67;;;14.07;;
6121;SDS011;3091;51.506;7.672;2023-05-23T01:05:44;15.90;;;15.20;;
6121;SDS011;3091;51.506;7.672;2023-05-23T01:08:10;14.83;;;14.23;;
6121;SDS011;3091;51.506;7.672;2023-05-23T01:10:36;14.90;;;14.30;;
6121;SDS011;3091;51.506;7.672;2023-05-23T01:13:05;15.30;;;14.70;;
6121;SDS011;3091;51.506;7.672;2023-05-23T01:20:39;17.20;;;16.40;;
6121;SDS011;3091;51.506;7.672;2023-05-23T01:23:27;16.17;;;15.27;;
6121;SDS011;3091;51.506;7.672;2023-05-23T01:26:12;15.13;;;14.53;;
6121;SDS011;3091;51.506;7.672;2023-05-23T01:28:42;15.30;;;14.70;;
6121;SDS011;3091;51.506;7.672;2023-05-23T01:31:10;16.63;;;15.93;;
6121;SDS011;3091;51.506;7.672;2023-05-23T01:33:37;14.80;;;14.30;;
6121;SDS011;3091;51.506;7.672;2023-05-23T01:36:04;15.07;;;14.37;;
6121;SDS011;3091;51.506;7.672;2023-05-23T01:38:30;14.50;;;13.90;;
6121;SDS011;3091;51.506;7.672;2023-05-23T01:40:59;15.03;;;14.40;;
6121;SDS011;3091;51.506;7.672;2023-05-23T01:43:25;15.13;;;14.53;;
6121;SDS011;3091;51.506;7.672;2023-05-23T01:45:51;15.10;;;14.40;;
6121;SDS011;3091;51.506;7.672;2023-05-23T01:48:18;15.23;;;14.63;;
6121;SDS011;3091;51.506;7.672;2023-05-23T01:50:45;17.83;;;16.83;;
6121;SDS011;3091;51.506;7.672;2023-05-23T01:53:19;17.20;;;16.40;;
6121;SDS011;3091;51.506;7.672;2023-05-23T01:55:45;17.60;;;16.37;;
6121;SDS011;3091;51.506;7.672;2023-05-23T01:58:11;15.70;;;15.00;;
6121;SDS011;3091;51.506;7.672;2023-05-23T02:00:37;14.90;;;14.30;;
6121;SDS011;3091;51.506;7.672;2023-05-23T02:03:03;15.10;;;14.50;;
6121;SDS011;3091;51.506;7.672;2023-05-23T02:05:30;15.00;;;14.40;;
6121;SDS011;3091;51.506;7.672;2023-05-23T02:07:56;16.17;;;15.43;;
6121;SDS011;3091;51.506;7.672;2023-05-23T02:10:22;15.83;;;15.13;;
6121;SDS011;3091;51.506;7.672;2023-05-23T02:12:48;15.30;;;14.70;;
6121;SDS011;3091;51.506;7.672;2023-05-23T02:15:14;15.30;;;14.70;;
6121;SDS011;3091;51.506;7.672;2023-05-23T02:17:41;15.40;;;14.80;;
6121;SDS011;3091;51.506;7.672;2023-05-23T02:20:07;15.73;;;15.03;;
6121;SDS011;3091;51.506;7.672;2023-05-23T02:22:34;18.30;;;17.50;;
6121;SDS011;3091;51.506;7.672;2023-05-23T02:25:00;22.67;;;21.47;;
6121;SDS011;3091;51.506;7.672;2023-05-23T02:27:26;26.03;;;24.63;;
6121;SDS011;3091;51.506;7.672;2023-05-23T02:29:52;33.40;;;31.60;;
6121;SDS011;3091;51.506;7.672;2023-05-23T02:32:18;35.20;;;33.20;;
6121;SDS011;3091;51.506;7.672;2023-05-23T02:34:44;37.00;;;34.90;;
6121;SDS011;3091;51.506;7.672;2023-05-23T02:37:12;38.30;;;36.10;;
6121;SDS011;3091;51.506;7.672;2023-05-23T02:39:38;39.67;;;37.47;;
6121;SDS011;3091;51.506;7.672;2023-05-23T02:42:04;39.93;;;37.63;;
6121;SDS011;3091;51.506;7.672;2023-05-23T02:44:30;39.60;;;37.40;;
6121;SDS011;3091;51.506;7.672;2023-05-23T02:46:56;36.30;;;34.20;;
6121;SDS011;3091;51.506;7.672;2023-05-23T02:49:22;34.43;;;32.43;;
6121;SDS011;3091;51.506;7.672;2023-05-23T02:51:48;33.50;;;31.50;;
6121;SDS011;3091;51.506;7.672;2023-05-23T02:54:14;31.60;;;29.70;;
6121;SDS011;3091;51.506;7.672;2023-05-23T02:56:40;32.67;;;30.77;;
6121;SDS011;3091;51.506;7.672;2023-05-23T02:59:06;31.00;;;29.20;;
6121;SDS011;3091;51.506;7.672;2023-05-23T03:01:32;34.73;;;32.73;;
6121;SDS011;3091;51.506;7.672;2023-05-23T03:03:59;33.43;;;31.53;;
6121;SDS011;3091;51.506;7.672;2023-05-23T03:06:25;33.23;;;31.00;;
6121;SDS011;3091;51.506;7.672;2023-05-23T03:08:51;33.47;;;31.37;;
6121;SDS011;3091;51.506;7.672;2023-05-23T03:11:17;33.83;;;31.73;;
6121;SDS011;3091;51.506;7.672;2023-05-23T03:13:43;30.23;;;28.43;;
6121;SDS011;3091;51.506;7.672;2023-05-23T03:16:09;32.90;;;30.90;;
6121;SDS011;3091;51.506;7.672;2023-05-23T03:18:36;28.43;;;26.83;;
6121;SDS011;3091;51.506;7.672;2023-05-23T03:21:05;25.20;;;23.80;;
6121;SDS011;3091;51.506;7.672;2023-05-23T03:23:32;22.93;;;21.63;;
6121;SDS011;3091;51.506;7.672;2023-05-23T03:25:58;22.50;;;20.97;;
6121;SDS011;3091;51.506;7.672;2023-05-23T03:28:24;18.00;;;17.10;;
6121;SDS011;3091;51.506;7.672;2023-05-23T03:30:50;18.33;;;17.43;;
6121;SDS011;3091;51.506;7.672;2023-05-23T03:33:16;16.90;;;16.10;;
6121;SDS011;3091;51.506;7.672;2023-05-23T03:35:42;17.53;;;16.63;;
6121;SDS011;3091;51.506;7.672;2023-05-23T03:38:08;18.10;;;17.17;;
6121;SDS011;3091;51.506;7.672;2023-05-23T03:40:34;18.43;;;17.50;;
6121;SDS011;3091;51.506;7.672;2023-05-23T03:43:01;16.80;;;16.00;;
6121;SDS011;3091;51.506;7.672;2023-05-23T03:45:31;16.20;;;15.50;;
6121;SDS011;3091;51.506;7.672;2023-05-23T03:47:57;17.27;;;16.40;;
6121;SDS011;3091;51.506;7.672;2023-05-23T03:50:23;16.60;;;15.70;;
6121;SDS011;3091;51.506;7.672;2023-05-23T03:52:50;17.33;;;16.53;;
6121;SDS011;3091;51.506;7.672;2023-05-23T03:55:16;22.37;;;21.07;;
6121;SDS011;3091;51.506;7.672;2023-05-23T03:57:46;18.43;;;17.53;;
6121;SDS011;3091;51.506;7.672;2023-05-23T04:00:12;19.20;;;18.17;;
6121;SDS011;3091;51.506;7.672;2023-05-23T04:02:41;16.40;;;15.60;;
6121;SDS011;3091;51.506;7.672;2023-05-23T04:05:07;16.80;;;16.00;;
6121;SDS011;3091;51.506;7.672;2023-05-23T04:07:34;17.10;;;16.30;;
6121;SDS011;3091;51.506;7.672;2023-05-23T04:10:00;19.03;;;17.50;;
6121;SDS011;3091;51.506;7.672;2023-05-23T04:12:26;16.47;;;15.77;;
6121;SDS011;3091;51.506;7.672;2023-05-23T04:14:54;15.70;;;15.00;;
6121;SDS011;3091;51.506;7.672;2023-05-23T04:17:21;16.40;;;15.60;;
6121;SDS011;3091;51.506;7.672;2023-05-23T04:19:48;16.30;;;15.50;;
6121;SDS011;3091;51.506;7.672;2023-05-23T04:22:14;18.07;;;16.83;;
6121;SDS011;3091;51.506;7.672;2023-05-23T04:24:42;16.80;;;16.00;;
6121;SDS011;3091;51.506;7.672;2023-05-23T04:27:08;16.70;;;15.90;;
6121;SDS011;3091;51.506;7.672;2023-05-23T04:29:36;18.77;;;17.93;;
6121;SDS011;3091;51.506;7.672;2023-05-23T04:32:03;17.60;;;16.70;;
6121;SDS011;3091;51.506;7.672;2023-05-23T04:34:32;18.73;;;17.63;;
6121;SDS011;3091;51.506;7.672;2023-05-23T04:36:59;16.20;;;15.50;;
6121;SDS011;3091;51.506;7.672;2023-05-23T04:39:28;19.23;;;18.03;;
6121;SDS011;3091;51.506;7.672;2023-05-23T04:41:54;16.63;;;15.83;;
6121;SDS011;3091;51.506;7.672;2023-05-23T04:44:21;15.20;;;14.57;;
6121;SDS011;3091;51.506;7.672;2023-05-23T04:46:47;16.10;;;15.40;;
6121;SDS011;3091;51.506;7.672;2023-05-23T04:49:14;15.30;;;14.60;;
6121;SDS011;3091;51.506;7.672;2023-05-23T04:51:40;15.43;;;14.73;;
6121;SDS011;3091;51.506;7.672;2023-05-23T04:54:06;16.00;;;15.30;;
6121;SDS011;3091;51.506;7.672;2023-05-23T04:56:32;16.03;;;15.33;;
6121;SDS011;3091;51.506;7.672;2023-05-23T04:58:58;15.10;;;14.50;;
6121;SDS011;3091;51.506;7.672;2023-05-23T05:01:24;14.70;;;14.10;;
6121;SDS011;3091;51.506;7.672;2023-05-23T05:03:51;15.53;;;14.83;;
6121;SDS011;3091;51.506;7.672;2023-05-23T05:06:18;15.37;;;14.77;;
6121;SDS011;3091;51.506;7.672;2023-05-23T05:08:45;14.50;;;13.90;;
6121;SDS011;3091;51.506;7.672;2023-05-23T05:11:11;14.00;;;13.40;;
6121;SDS011;3091;51.506;7.672;2023-05-23T05:13:39;14.60;;;14.00;;
6121;SDS011;3091;51.506;7.672;2023-05-23T05:16:05;14.70;;;14.10;;
6121;SDS011;3091;51.506;7.672;2023-05-23T05:18:31;14.70;;;14.10;;
6121;SDS011;3091;51.506;7.672;2023-05-23T05:20:57;16.03;;;15.30;;
6121;SDS011;3091;51.506;7.672;2023-05-23T05:23:24;15.47;;;14.77;;
6121;SDS011;3091;51.506;7.672;2023-05-23T05:25:52;17.07;;;16.27;;
6121;SDS011;3091;51.506;7.672;2023-05-23T05:28:20;16.37;;;15.47;;
6121;SDS011;3091;51.506;7.672;2023-05-23T05:30:46;15.53;;;14.83;;
6121;SDS011;3091;51.506;7.672;2023-05-23T05:33:20;14.90;;;14.30;;
6121;SDS011;3091;51.506;7.672;2023-05-23T05:35:49;15.60;;;14.90;;
6121;SDS011;3091;51.506;7.672;2023-05-23T05:38:16;16.53;;;15.23;;
6121;SDS011;3091;51.506;7.672;2023-05-23T05:40:42;16.80;;;15.80;;
6121;SDS011;3091;51.506;7.672;2023-05-23T05:43:08;17.77;;;16.77;;
6121;SDS011;3091;51.506;7.672;2023-05-23T05:45:34;15.60;;;14.90;;
6121;SDS011;3091;51.506;7.672;2023-05-23T05:48:00;16.40;;;15.70;;
6121;SDS011;3091;51.506;7.672;2023-05-23T05:50:26;15.67;;;14.73;;
6121;SDS011;3091;51.506;7.672;2023-05-23T05:52:52;14.70;;;14.10;;
6121;SDS011;3091;51.506;7.672;2023-05-23T05:55:18;14.17;;;13.67;;
6121;SDS011;3091;51.506;7.672;2023-05-23T05:57:44;14.50;;;13.90;;
6121;SDS011;3091;51.506;7.672;2023-05-23T06:00:11;15.00;;;14.33;;
6121;SDS011;3091;51.506;7.672;2023-05-23T06:02:42;15.53;;;14.87;;
6121;SDS011;3091;51.506;7.672;2023-05-23T06:05:10;20.00;;;18.07;;
6121;SDS011;3091;51.506;7.672;2023-05-23T06:07:39;19.40;;;18.13;;
6121;SDS011;3091;51.506;7.672;2023-05-23T06:10:06;14.73;;;14.13;;
6121;SDS011;3091;51.506;7.672;2023-05-23T06:12:32;15.30;;;14.70;;
6121;SDS011;3091;51.506;7.672;2023-05-23T06:14:58;16.07;;;15.47;;
6121;SDS011;3091;51.506;7.672;2023-05-23T06:17:24;14.77;;;14.17;;
6121;SDS011;3091;51.506;7.672;2023-05-23T06:19:50;17.17;;;16.43;;
6121;SDS011;3091;51.506;7.672;2023-05-23T06:22:17;14.77;;;14.17;;
6121;SDS011;3091;51.506;7.672;2023-05-23T06:24:43;16.57;;;15.83;;
6121;SDS011;3091;51.506;7.672;2023-05-23T06:27:09;14.37;;;13.87;;
6121;SDS011;3091;51.506;7.672;2023-05-23T06:29:37;15.10;;;14.50;;
6121;SDS011;3091;51.506;7.672;2023-05-23T06:32:03;15.33;;;14.53;;
6121;SDS011;3091;51.506;7.672;2023-05-23T06:34:29;20.43;;;18.60;;
6121;SDS011;3091;51.506;7.672;2023-05-23T06:36:55;15.60;;;14.90;;
6121;SDS011;3091;51.506;7.672;2023-05-23T06:39:21;15.63;;;14.93;;
6121;SDS011;3091;51.506;7.672;2023-05-23T06:41:47;16.70;;;15.90;;
6121;SDS011;3091;51.506;7.672;2023-05-23T06:44:14;16.73;;;15.93;;
6121;SDS011;3091;51.506;7.672;2023-05-23T06:46:44;19.00;;;18.00;;
6121;SDS011;3091;51.506;7.672;2023-05-23T06:49:10;20.93;;;19.83;;
6121;SDS011;3091;51.506;7.672;2023-05-23T06:51:36;23.27;;;21.87;;
6121;SDS011;3091;51.506;7.672;2023-05-23T06:54:02;25.23;;;23.63;;
6121;SDS011;3091;51.506;7.672;2023-05-23T06:56:28;25.83;;;24.33;;
6121;SDS011;3091;51.506;7.672;2023-05-23T06:58:54;22.70;;;21.50;;
6121;SDS011;3091;51.506;7.672;2023-05-23T07:01:20;20.90;;;19.70;;
6121;SDS011;3091;51.506;7.672;2023-05-23T07:03:49;18.63;;;17.73;;
6121;SDS011;3091;51.506;7.672;2023-05-23T07:06:15;17.60;;;16.70;;
6121;SDS011;3091;51.506;7.672;2023-05-23T07:08:42;14.20;;;13.60;;
6121;SDS011;3091;51.506;7.672;2023-05-23T07:11:08;16.10;;;15.30;;
6121;SDS011;3091;51.506;7.672;2023-05-23T07:13:34;16.20;;;15.50;;
6121;SDS011;3091;51.506;7.672;2023-05-23T07:16:00;16.53;;;15.73;;
6121;SDS011;3091;51.506;7.672;2023-05-23T07:18:26;19.90;;;18.80;;
6121;SDS011;3091;51.506;7.672;2023-05-23T07:20:52;22.37;;;21.13;;
6121;SDS011;3091;51.506;7.672;2023-05-23T07:23:18;25.43;;;23.83;;
6121;SDS011;3091;51.506;7.672;2023-05-23T07:25:44;28.20;;;26.30;;
6121;SDS011;3091;51.506;7.672;2023-05-23T07:28:11;28.50;;;26.50;;
6121;SDS011;3091;51.506;7.672;2023-05-23T07:30:37;41.57;;;30.27;;
6121;SDS011;3091;51.506;7.672;2023-05-23T07:33:03;32.33;;;30.00;;
6121;SDS011;3091;51.506;7.672;2023-05-23T07:35:29;35.73;;;33.03;;
6121;SDS011;3091;51.506;7.672;2023-05-23T07:37:55;32.50;;;30.10;;
6121;SDS011;3091;51.506;7.672;2023-05-23T07:40:25;34.10;;;31.50;;
6121;SDS011;3091;51.506;7.672;2023-05-23T07:42:51;33.40;;;31.00;;
6121;SDS011;3091;51.506;7.672;2023-05-23T07:45:20;33.57;;;31.00;;
6121;SDS011;3091;51.506;7.672;2023-05-23T07:47:47;33.60;;;31.30;;
6121;SDS011;3091;51.506;7.672;2023-05-23T07:50:14;32.70;;;30.40;;
6121;SDS011;3091;51.506;7.672;2023-05-23T07:52:40;31.13;;;29.13;;
6121;SDS011;3091;51.506;7.672;2023-05-23T07:55:06;26.57;;;24.97;;
6121;SDS011;3091;51.506;7.672;2023-05-23T07:57:33;23.73;;;22.33;;
6121;SDS011;3091;51.506;7.672;2023-05-23T07:59:59;19.83;;;18.53;;
6121;SDS011;3091;51.506;7.672;2023-05-23T08:02:25;19.53;;;18.43;;
6121;SDS011;3091;51.506;7.672;2023-05-23T08:04:51;16.03;;;15.23;;
6121;SDS011;3091;51.506;7.672;2023-05-23T08:07:17;17.43;;;16.53;;
6121;SDS011;3091;51.506;7.672;2023-05-23T08:09:43;17.40;;;16.60;;
6121;SDS011;3091;51.506;7.672;2023-05-23T08:12:10;17.70;;;16.80;;
6121;SDS011;3091;51.506;7.672;2023-05-23T08:14:36;16.80;;;16.00;;
6121;SDS011;3091;51.506;7.672;2023-05-23T08:17:02;16.23;;;15.53;;
6121;SDS011;3091;51.506;7.672;2023-05-23T08:19:28;16.77;;;15.97;;
6121;SDS011;3091;51.506;7.672;2023-05-23T08:21:54;16.20;;;15.40;;
6121;SDS011;3091;51.506;7.672;2023-05-23T08:24:20;17.90;;;16.90;;
6121;SDS011;3091;51.506;7.672;2023-05-23T08:26:46;15.80;;;15.10;;
6121;SDS011;3091;51.506;7.672;2023-05-23T08:29:12;16.77;;;15.97;;
6121;SDS011;3091;51.506;7.672;2023-05-23T08:31:39;16.87;;;16.10;;
6121;SDS011;3091;51.506;7.672;2023-05-23T08:34:05;16.10;;;15.40;;
6121;SDS011;3091;51.506;7.672;2023-05-23T08:36:32;16.97;;;16.13;;
6121;SDS011;3091;51.506;7.672;2023-05-23T08:39:01;17.90;;;16.90;;
6121;SDS011;3091;51.506;7.672;2023-05-23T08:41:28;18.27;;;17.30;;
6121;SDS011;3091;51.506;7.672;2023-05-23T08:43:55;16.93;;;16.23;;
6121;SDS011;3091;51.506;7.672;2023-05-23T08:46:22;17.30;;;16.40;;
6121;SDS011;3091;51.506;7.672;2023-05-23T08:48:52;16.43;;;15.70;;
6121;SDS011;3091;51.506;7.672;2023-05-23T08:51:20;17.00;;;16.20;;
6121;SDS011;3091;51.506;7.672;2023-05-23T08:53:46;17.07;;;16.27;;
6121;SDS011;3091;51.506;7.672;2023-05-23T08:56:13;18.20;;;17.10;;
6121;SDS011;3091;51.506;7.672;2023-05-23T08:58:40;16.67;;;15.80;;
6121;SDS011;3091;51.506;7.672;2023-05-23T09:01:10;14.83;;;14.23;;
6121;SDS011;3091;51.506;7.672;2023-05-23T09:03:37;16.40;;;15.60;;
6121;SDS011;3091;51.506;7.672;2023-05-23T09:06:07;15.10;;;14.50;;
6121;SDS011;3091;51.506;7.672;2023-05-23T09:08:33;15.73;;;14.93;;
6121;SDS011;3091;51.506;7.672;2023-05-23T09:11:00;16.67;;;15.87;;
6121;SDS011;3091;51.506;7.672;2023-05-23T09:13:29;15.50;;;14.90;;
6121;SDS011;3091;51.506;7.672;2023-05-23T09:21:02;16.20;;;15.50;;
6121;SDS011;3091;51.506;7.672;2023-05-23T09:23:32;15.73;;;15.03;;
6121;SDS011;3091;51.506;7.672;2023-05-23T09:26:05;15.90;;;15.20;;
6121;SDS011;3091;51.506;7.672;2023-05-23T09:28:31;15.40;;;14.80;;
6121;SDS011;3091;51.506;7.672;2023-05-23T09:30:58;17.33;;;16.53;;
6121;SDS011;3091;51.506;7.672;2023-05-23T09:33:28;18.73;;;17.60;;
6121;SDS011;3091;51.506;7.672;2023-05-23T09:35:54;14.90;;;14.30;;
6121;SDS011;3091;51.506;7.672;2023-05-23T09:38:20;15.57;;;14.87;;
6121;SDS011;3091;51.506;7.672;2023-05-23T09:40:46;15.83;;;15.13;;
6121;SDS011;3091;51.506;7.672;2023-05-23T09:43:13;15.27;;;14.67;;
6121;SDS011;3091;51.506;7.672;2023-05-23T09:45:42;16.43;;;15.73;;
6121;SDS011;3091;51.506;7.672;2023-05-23T09:48:10;15.10;;;14.50;;
6121;SDS011;3091;51.506;7.672;2023-05-23T09:50:38;15.10;;;14.50;;
6121;SDS011;3091;51.506;7.672;2023-05-23T09:53:04;15.50;;;14.90;;
6121;SDS011;3091;51.506;7.672;2023-05-23T09:55:30;17.87;;;16.97;;
6121;SDS011;3091;51.506;7.672;2023-05-23T09:57:56;16.03;;;15.13;;
6121;SDS011;3091;51.506;7.672;2023-05-23T10:00:24;15.63;;;14.93;;
6121;SDS011;3091;51.506;7.672;2023-05-23T10:05:37;14.60;;;14.03;;
6121;SDS011;3091;51.506;7.672;2023-05-23T10:08:09;17.37;;;16.57;;
6121;SDS011;3091;51.506;7.672;2023-05-23T10:11:05;16.67;;;15.93;;
6121;SDS011;3091;51.506;7.672;2023-05-23T10:13:44;15.50;;;14.90;;
6121;SDS011;3091;51.506;7.672;2023-05-23T10:16:14;15.60;;;14.80;;
6121;SDS011;3091;51.506;7.672;2023-05-23T10:18:44;16.10;;;15.40;;
6121;SDS011;3091;51.506;7.672;2023-05-23T10:21:22;15.30;;;14.60;;
6121;SDS011;3091;51.506;7.672;2023-05-23T10:23:49;17.40;;;16.40;;
6121;SDS011;3091;51.506;7.672;2023-05-23T10:26:16;14.30;;;13.80;;
6121;SDS011;3091;51.506;7.672;2023-05-23T10:28:42;16.37;;;15.73;;
6121;SDS011;3091;51.506;7.672;2023-05-23T10:31:11;16.50;;;15.80;;
6121;SDS011;3091;51.506;7.672;2023-05-23T10:33:40;18.53;;;17.63;;
6121;SDS011;3091;51.506;7.672;2023-05-23T10:36:09;16.80;;;16.20;;
6121;SDS011;3091;51.506;7.672;2023-05-23T10:38:37;18.17;;;17.17;;
6121;SDS011;3091;51.506;7.672;2023-05-23T10:46:13;15.23;;;14.63;;
6121;SDS011;3091;51.506;7.672;2023-05-23T10:48:40;14.43;;;13.73;;
6121;SDS011;3091;51.506;7.672;2023-05-23T10:51:07;14.93;;;14.33;;
6121;SDS011;3091;51.506;7.672;2023-05-23T10:53:34;15.50;;;14.60;;
6121;SDS011;3091;51.506;7.672;2023-05-23T10:56:01;13.90;;;13.40;;
6121;SDS011;3091;51.506;7.672;2023-05-23T10:58:29;13.30;;;12.80;;
6121;SDS011;3091;51.506;7.672;2023-05-23T11:00:56;14.57;;;13.97;;
6121;SDS011;3091;51.506;7.672;2023-05-23T11:03:48;13.63;;;13.13;;
6121;SDS011;3091;51.506;7.672;2023-05-23T11:06:28;12.13;;;11.73;;
6121;SDS011;3091;51.506;7.672;2023-05-23T11:11:52;10.40;;;10.10;;
6121;SDS011;3091;51.506;7.672;2023-05-23T11:19:54;11.63;;;11.23;;
6121;SDS011;3091;51.506;7.672;2023-05-23T11:22:21;11.30;;;10.90;;
6121;SDS011;3091;51.506;7.672;2023-05-23T11:24:47;11.00;;;10.70;;
6121;SDS011;3091;51.506;7.672;2023-05-23T11:27:26;11.50;;;11.10;;
6121;SDS011;3091;51.506;7.672;2023-05-23T11:30:08;11.40;;;11.00;;
6121;SDS011;3091;51.506;7.672;2023-05-23T11:32:37;11.17;;;10.87;;
6121;SDS011;3091;51.506;7.672;2023-05-23T11:35:03;11.83;;;11.43;;
6121;SDS011;3091;51.506;7.672;2023-05-23T11:37:30;12.00;;;11.60;;
6121;SDS011;3091;51.506;7.672;2023-05-23T11:39:58;13.30;;;12.70;;
6121;SDS011;3091;51.506;7.672;2023-05-23T11:42:26;12.27;;;11.87;;
6121;SDS011;3091;51.506;7.672;2023-05-23T11:44:53;12.50;;;12.00;;
6121;SDS011;3091;51.506;7.672;2023-05-23T11:47:19;11.87;;;11.47;;
6121;SDS011;3091;51.506;7.672;2023-05-23T11:49:45;12.80;;;12.30;;
6121;SDS011;3091;51.506;7.672;2023-05-23T11:52:12;12.50;;;12.10;;
6121;SDS011;3091;51.506;7.672;2023-05-23T11:54:39;13.13;;;12.50;;
6121;SDS011;3091;51.506;7.672;2023-05-23T11:57:06;13.80;;;13.17;;
6121;SDS011;3091;51.506;7.672;2023-05-23T11:59:32;12.90;;;12.30;;
6121;SDS011;3091;51.506;7.672;2023-05-23T12:01:58;11.03;;;10.73;;
6121;SDS011;3091;51.506;7.672;2023-05-23T12:04:26;11.53;;;10.90;;
6121;SDS011;3091;51.506;7.672;2023-05-23T12:06:52;11.77;;;11.27;;
6121;SDS011;3091;51.506;7.672;2023-05-23T12:09:19;22.00;;;11.90;;
6121;SDS011;3091;51.506;7.672;2023-05-23T12:11:45;12.20;;;11.70;;
6121;SDS011;3091;51.506;7.672;2023-05-23T12:14:15;11.20;;;10.80;;
6121;SDS011;3091;51.506;7.672;2023-05-23T12:16:42;10.93;;;10.57;;
6121;SDS011;3091;51.506;7.672;2023-05-23T12:19:09;13.83;;;13.33;;
6121;SDS011;3091;51.506;7.672;2023-05-23T12:21:40;12.40;;;12.00;;
6121;SDS011;3091;51.506;7.672;2023-05-23T12:26:45;13.60;;;13.03;;
6121;SDS011;3091;51.506;7.672;2023-05-23T12:29:11;13.23;;;12.73;;
6121;SDS011;3091;51.506;7.672;2023-05-23T12:31:37;12.50;;;12.10;;
6121;SDS011;3091;51.506;7.672;2023-05-23T12:34:05;12.50;;;12.10;;
6121;SDS011;3091;51.506;7.672;2023-05-23T12:36:31;13.00;;;12.50;;
6121;SDS011;3091;51.506;7.672;2023-05-23T12:39:02;12.43;;;12.03;;
6121;SDS011;3091;51.506;7.672;2023-05-23T12:41:30;12.63;;;12.23;;
6121;SDS011;3091;51.506;7.672;2023-05-23T12:43:59;12.70;;;12.30;;
6121;SDS011;3091;51.506;7.672;2023-05-23T12:46:26;15.40;;;14.17;;
6121;SDS011;3091;51.506;7.672;2023-05-23T12:48:52;13.53;;;13.03;;
6121;SDS011;3091;51.506;7.672;2023-05-23T12:51:19;12.57;;;12.07;;
6121;SDS011;3091;51.506;7.672;2023-05-23T12:53:47;13.73;;;12.97;;
6121;SDS011;3091;51.506;7.672;2023-05-23T12:56:13;13.27;;;12.63;;
6121;SDS011;3091;51.506;7.672;2023-05-23T12:58:39;12.47;;;11.97;;
6121;SDS011;3091;51.506;7.672;2023-05-23T13:01:05;11.67;;;11.27;;
6121;SDS011;3091;51.506;7.672;2023-05-23T13:03:31;12.83;;;12.40;;
6121;SDS011;3091;51.506;7.672;2023-05-23T13:05:58;11.80;;;11.40;;
6121;SDS011;3091;51.506;7.672;2023-05-23T13:08:25;12.10;;;11.70;;
6121;SDS011;3091;51.506;7.672;2023-05-23T13:10:54;11.40;;;11.00;;
6121;SDS011;3091;51.506;7.672;2023-05-23T13:13:21;11.47;;;11.07;;
6121;SDS011;3091;51.506;7.672;2023-05-23T13:15:47;11.40;;;11.00;;
6121;SDS011;3091;51.506;7.672;2023-05-23T13:18:13;11.97;;;11.40;;
6121;SDS011;3091;51.506;7.672;2023-05-23T13:20:39;11.60;;;11.20;;
6121;SDS011;3091;51.506;7.672;2023-05-23T13:23:06;11.87;;;11.47;;
6121;SDS011;3091;51.506;7.672;2023-05-23T13:25:33;12.97;;;12.50;;
6121;SDS011;3091;51.506;7.672;2023-05-23T13:27:59;12.60;;;12.20;;
6121;SDS011;3091;51.506;7.672;2023-05-23T13:30:26;13.40;;;12.90;;
6121;SDS011;3091;51.506;7.672;2023-05-23T13:32:52;13.20;;;12.70;;
6121;SDS011;3091;51.506;7.672;2023-05-23T13:35:18;13.07;;;12.57;;
6121;SDS011;3091;51.506;7.672;2023-05-23T13:37:44;13.00;;;12.60;;
6121;SDS011;3091;51.506;7.672;2023-05-23T13:40:11;13.70;;;13.03;;
6121;SDS011;3091;51.506;7.672;2023-05-23T13:42:37;13.87;;;13.30;;
6121;SDS011;3091;51.506;7.672;2023-05-23T13:45:03;13.70;;;13.20;;
6121;SDS011;3091;51.506;7.672;2023-05-23T13:47:30;12.80;;;12.40;;
6121;SDS011;3091;51.506;7.672;2023-05-23T13:49:56;13.70;;;12.80;;
6121;SDS011;3091;51.506;7.672;2023-05-23T13:52:22;13.47;;;12.83;;
6121;SDS011;3091;51.506;7.672;2023-05-23T13:54:48;13.20;;;12.70;;
6121;SDS011;3091;51.506;7.672;2023-05-23T13:57:14;13.23;;;12.73;;
6121;SDS011;3091;51.506;7.672;2023-05-23T13:59:39;12.63;;;12.20;;
6121;SDS011;3091;51.506;7.672;2023-05-23T14:02:05;13.63;;;12.70;;
6121;SDS011;3091;51.506;7.672;2023-05-23T14:04:32;11.40;;;11.00;;
6121;SDS011;3091;51.506;7.672;2023-05-23T14:06:58;11.70;;;11.20;;
6121;SDS011;3091;51.506;7.672;2023-05-23T14:09:24;11.93;;;11.53;;
6121;SDS011;3091;51.506;7.672;2023-05-23T14:11:50;13.60;;;13.10;;
6121;SDS011;3091;51.506;7.672;2023-05-23T14:14:16;11.40;;;11.00;;
6121;SDS011;3091;51.506;7.672;2023-05-23T14:16:42;11.90;;;11.50;;
6121;SDS011;3091;51.506;7.672;2023-05-23T14:19:08;12.30;;;11.87;;
6121;SDS011;3091;51.506;7.672;2023-05-23T14:21:34;11.37;;;10.97;;
6121;SDS011;3091;51.506;7.672;2023-05-23T14:24:01;12.60;;;12.20;;
6121;SDS011;3091;51.506;7.672;2023-05-23T14:26:27;12.03;;;11.63;;
6121;SDS011;3091;51.506;7.672;2023-05-23T14:28:53;12.37;;;11.97;;
6121;SDS011;3091;51.506;7.672;2023-05-23T14:31:19;12.40;;;12.00;;
6121;SDS011;3091;51.506;7.672;2023-05-23T14:33:46;13.13;;;12.63;;
6121;SDS011;3091;51.506;7.672;2023-05-23T14:36:16;15.23;;;13.90;;
6121;SDS011;3091;51.506;7.672;2023-05-23T14:38:42;12.57;;;12.17;;
6121;SDS011;3091;51.506;7.672;2023-05-23T14:41:10;13.10;;;12.60;;
6121;SDS011;3091;51.506;7.672;2023-05-23T14:43:36;13.40;;;12.80;;
6121;SDS011;3091;51.506;7.672;2023-05-23T14:46:02;11.63;;;11.23;;
6121;SDS011;3091;51.506;7.672;2023-05-23T14:48:28;11.63;;;11.23;;
6121;SDS011;3091;51.506;7.672;2023-05-23T14:50:54;11.80;;;11.40;;
6121;SDS011;3091;51.506;7.672;2023-05-23T14:53:20;11.50;;;11.10;;
6121;SDS011;3091;51.506;7.672;2023-05-23T14:55:47;11.97;;;11.57;;
6121;SDS011;3091;51.506;7.672;2023-05-23T14:58:13;12.13;;;11.73;;
6121;SDS011;3091;51.506;7.672;2023-05-23T15:00:40;11.93;;;11.53;;
6121;SDS011;3091;51.506;7.672;2023-05-23T15:03:06;12.30;;;11.80;;
6121;SDS011;3091;51.506;7.672;2023-05-23T15:05:32;12.80;;;12.30;;
6121;SDS011;3091;51.506;7.672;2023-05-23T15:07:58;14.20;;;13.27;;
6121;SDS011;3091;51.506;7.672;2023-05-23T15:10:25;14.87;;;14.00;;
6121;SDS011;3091;51.506;7.672;2023-05-23T15:12:51;13.10;;;12.60;;
6121;SDS011;3091;51.506;7.672;2023-05-23T15:15:19;13.10;;;12.60;;
6121;SDS011;3091;51.506;7.672;2023-05-23T15:17:47;13.40;;;12.90;;